sensor_id;sensor_type;location;lat;lon;timestamp;P1;durP1;ratioP1;P2;durP2;ratioP2
17987;SDS011;9119;50.932;5.342;2023-02-22T00:00:55;97.53;;;29.80;;
17987;SDS011;9119;50.932;5.342;2023-02-22T00:03:26;115.93;;;29.37;;
17987;SDS011;9119;50.932;5.342;2023-02-22T00:05:57;139.33;;;30.87;;
17987;SDS011;9119;50.932;5.342;2023-02-22T00:08:28;77.97;;;27.90;;
17987;SDS011;9119;50.932;5.342;2023-02-22T00:11:00;112.33;;;31.40;;
17987;SDS011;9119;50.932;5.342;2023-02-22T00:13:32;120.73;;;30.10;;
17987;SDS011;9119;50.932;5.342;2023-02-22T00:15:59;101.67;;;29.07;;
17987;SDS011;9119;50.932;5.342;2023-02-22T00:18:26;82.83;;;26.47;;
17987;SDS011;9119;50.932;5.342;2023-02-22T00:20:55;77.10;;;28.37;;
17987;SDS011;9119;50.932;5.342;2023-02-22T00:23:25;110.83;;;28.10;;
17987;SDS011;9119;50.932;5.342;2023-02-22T00:25:57;100.17;;;28.33;;
17987;SDS011;9119;50.932;5.342;2023-02-22T00:28:24;78.17;;;26.57;;
17987;SDS011;9119;50.932;5.342;2023-02-22T00:30:50;82.37;;;27.33;;
17987;SDS011;9119;50.932;5.342;2023-02-22T00:33:16;82.83;;;27.33;;
17987;SDS011;9119;50.932;5.342;2023-02-22T00:35:43;96.60;;;28.63;;
17987;SDS011;9119;50.932;5.342;2023-02-22T00:38:13;75.53;;;25.60;;
17987;SDS011;9119;50.932;5.342;2023-02-22T00:40:41;72.20;;;25.43;;
17987;SDS011;9119;50.932;5.342;2023-02-22T00:43:06;71.47;;;24.70;;
17987;SDS011;9119;50.932;5.342;2023-02-22T00:45:33;99.33;;;24.67;;
17987;SDS011;9119;50.932;5.342;2023-02-22T00:48:00;69.07;;;24.47;;
17987;SDS011;9119;50.932;5.342;2023-02-22T00:50:28;86.70;;;26.53;;
17987;SDS011;9119;50.932;5.342;2023-02-22T00:52:55;69.43;;;24.80;;
17987;SDS011;9119;50.932;5.342;2023-02-22T00:55:25;71.07;;;25.37;;
17987;SDS011;9119;50.932;5.342;2023-02-22T00:57:53;67.30;;;24.07;;
17987;SDS011;9119;50.932;5.342;2023-02-22T01:00:23;74.67;;;24.77;;
17987;SDS011;9119;50.932;5.342;2023-02-22T01:02:58;84.07;;;25.27;;
17987;SDS011;9119;50.932;5.342;2023-02-22T01:05:25;72.23;;;23.77;;
17987;SDS011;9119;50.932;5.342;2023-02-22T01:07:53;63.53;;;22.10;;
17987;SDS011;9119;50.932;5.342;2023-02-22T01:10:21;110.50;;;25.17;;
17987;SDS011;9119;50.932;5.342;2023-02-22T01:12:48;67.73;;;22.87;;
17987;SDS011;9119;50.932;5.342;2023-02-22T01:15:15;93.27;;;24.10;;
17987;SDS011;9119;50.932;5.342;2023-02-22T01:17:46;85.73;;;23.03;;
17987;SDS011;9119;50.932;5.342;2023-02-22T01:20:12;73.73;;;22.33;;
17987;SDS011;9119;50.932;5.342;2023-02-22T01:22:39;62.07;;;21.93;;
17987;SDS011;9119;50.932;5.342;2023-02-22T01:25:06;98.07;;;22.63;;
17987;SDS011;9119;50.932;5.342;2023-02-22T01:27:33;81.97;;;22.67;;
17987;SDS011;9119;50.932;5.342;2023-02-22T01:29:59;107.03;;;22.43;;
17987;SDS011;9119;50.932;5.342;2023-02-22T01:32:25;84.83;;;23.50;;
17987;SDS011;9119;50.932;5.342;2023-02-22T01:34:54;87.57;;;23.67;;
17987;SDS011;9119;50.932;5.342;2023-02-22T01:37:20;133.53;;;27.17;;
17987;SDS011;9119;50.932;5.342;2023-02-22T01:39:46;91.90;;;22.87;;
17987;SDS011;9119;50.932;5.342;2023-02-22T01:42:11;62.27;;;20.97;;
17987;SDS011;9119;50.932;5.342;2023-02-22T01:44:37;88.23;;;22.73;;
17987;SDS011;9119;50.932;5.342;2023-02-22T01:47:05;79.70;;;23.80;;
17987;SDS011;9119;50.932;5.342;2023-02-22T01:52:11;83.73;;;23.50;;
17987;SDS011;9119;50.932;5.342;2023-02-22T01:54:41;68.77;;;22.93;;
17987;SDS011;9119;50.932;5.342;2023-02-22T01:59:51;68.70;;;22.73;;
17987;SDS011;9119;50.932;5.342;2023-02-22T02:02:20;72.27;;;22.73;;
17987;SDS011;9119;50.932;5.342;2023-02-22T02:04:46;60.97;;;21.43;;
17987;SDS011;9119;50.932;5.342;2023-02-22T02:07:13;91.57;;;22.93;;
17987;SDS011;9119;50.932;5.342;2023-02-22T02:12:18;87.07;;;23.10;;
17987;SDS011;9119;50.932;5.342;2023-02-22T02:14:47;81.07;;;21.87;;
17987;SDS011;9119;50.932;5.342;2023-02-22T02:17:14;100.77;;;23.30;;
17987;SDS011;9119;50.932;5.342;2023-02-22T02:22:37;76.93;;;20.93;;
17987;SDS011;9119;50.932;5.342;2023-02-22T02:36:22;71.50;;;18.93;;
17987;SDS011;9119;50.932;5.342;2023-02-22T02:41:53;83.60;;;18.70;;
17987;SDS011;9119;50.932;5.342;2023-02-22T02:44:27;73.03;;;18.60;;
17987;SDS011;9119;50.932;5.342;2023-02-22T02:49:36;76.43;;;18.57;;
17987;SDS011;9119;50.932;5.342;2023-02-22T02:52:09;56.70;;;18.73;;
17987;SDS011;9119;50.932;5.342;2023-02-22T02:54:37;55.13;;;18.07;;
17987;SDS011;9119;50.932;5.342;2023-02-22T02:57:03;65.50;;;18.87;;
17987;SDS011;9119;50.932;5.342;2023-02-22T02:59:33;65.13;;;18.70;;
17987;SDS011;9119;50.932;5.342;2023-02-22T03:10:44;63.50;;;19.07;;
17987;SDS011;9119;50.932;5.342;2023-02-22T03:22:21;71.93;;;19.47;;
17987;SDS011;9119;50.932;5.342;2023-02-22T03:27:45;79.80;;;18.60;;
17987;SDS011;9119;50.932;5.342;2023-02-22T03:30:52;60.60;;;18.50;;
17987;SDS011;9119;50.932;5.342;2023-02-22T03:33:13;54.47;;;17.43;;
17987;SDS011;9119;50.932;5.342;2023-02-22T03:36:04;51.33;;;17.90;;
17987;SDS011;9119;50.932;5.342;2023-02-22T03:38:43;49.83;;;18.10;;
17987;SDS011;9119;50.932;5.342;2023-02-22T03:41:10;48.37;;;17.80;;
17987;SDS011;9119;50.932;5.342;2023-02-22T03:43:40;48.80;;;18.00;;
17987;SDS011;9119;50.932;5.342;2023-02-22T03:46:14;48.80;;;17.70;;
17987;SDS011;9119;50.932;5.342;2023-02-22T03:48:59;50.03;;;17.93;;
17987;SDS011;9119;50.932;5.342;2023-02-22T03:51:33;44.70;;;17.43;;
17987;SDS011;9119;50.932;5.342;2023-02-22T03:53:59;57.73;;;19.27;;
17987;SDS011;9119;50.932;5.342;2023-02-22T03:56:28;53.00;;;18.67;;
17987;SDS011;9119;50.932;5.342;2023-02-22T03:59:01;51.43;;;18.30;;
17987;SDS011;9119;50.932;5.342;2023-02-22T04:01:32;47.83;;;18.93;;
17987;SDS011;9119;50.932;5.342;2023-02-22T04:03:58;55.60;;;19.00;;
17987;SDS011;9119;50.932;5.342;2023-02-22T04:06:24;47.07;;;18.20;;
17987;SDS011;9119;50.932;5.342;2023-02-22T04:08:50;44.17;;;19.00;;
17987;SDS011;9119;50.932;5.342;2023-02-22T04:11:16;52.57;;;18.63;;
17987;SDS011;9119;50.932;5.342;2023-02-22T04:13:42;63.57;;;19.73;;
17987;SDS011;9119;50.932;5.342;2023-02-22T04:16:08;56.50;;;18.70;;
17987;SDS011;9119;50.932;5.342;2023-02-22T04:18:33;48.57;;;19.10;;
17987;SDS011;9119;50.932;5.342;2023-02-22T04:20:59;44.60;;;18.00;;
17987;SDS011;9119;50.932;5.342;2023-02-22T04:23:24;55.57;;;18.27;;
17987;SDS011;9119;50.932;5.342;2023-02-22T04:25:51;47.67;;;19.10;;
17987;SDS011;9119;50.932;5.342;2023-02-22T04:28:17;54.00;;;19.77;;
17987;SDS011;9119;50.932;5.342;2023-02-22T04:30:42;53.60;;;19.27;;
17987;SDS011;9119;50.932;5.342;2023-02-22T04:33:10;51.90;;;19.03;;
17987;SDS011;9119;50.932;5.342;2023-02-22T04:35:36;47.37;;;18.80;;
17987;SDS011;9119;50.932;5.342;2023-02-22T04:38:02;51.77;;;18.27;;
17987;SDS011;9119;50.932;5.342;2023-02-22T04:40:28;51.80;;;19.67;;
17987;SDS011;9119;50.932;5.342;2023-02-22T04:42:54;45.87;;;17.87;;
17987;SDS011;9119;50.932;5.342;2023-02-22T04:45:20;46.00;;;19.43;;
17987;SDS011;9119;50.932;5.342;2023-02-22T04:47:46;46.07;;;18.43;;
17987;SDS011;9119;50.932;5.342;2023-02-22T04:50:11;50.03;;;19.37;;
17987;SDS011;9119;50.932;5.342;2023-02-22T04:52:37;50.07;;;19.37;;
17987;SDS011;9119;50.932;5.342;2023-02-22T04:55:03;44.83;;;18.73;;
17987;SDS011;9119;50.932;5.342;2023-02-22T04:57:30;54.53;;;18.73;;
17987;SDS011;9119;50.932;5.342;2023-02-22T04:59:55;48.67;;;18.60;;
17987;SDS011;9119;50.932;5.342;2023-02-22T05:02:21;51.93;;;19.47;;
17987;SDS011;9119;50.932;5.342;2023-02-22T05:04:47;58.60;;;20.23;;
17987;SDS011;9119;50.932;5.342;2023-02-22T05:07:12;53.50;;;20.33;;
17987;SDS011;9119;50.932;5.342;2023-02-22T05:09:38;54.07;;;19.70;;
17987;SDS011;9119;50.932;5.342;2023-02-22T05:12:04;51.63;;;19.93;;
17987;SDS011;9119;50.932;5.342;2023-02-22T05:14:29;58.40;;;21.13;;
17987;SDS011;9119;50.932;5.342;2023-02-22T05:16:55;51.60;;;19.67;;
17987;SDS011;9119;50.932;5.342;2023-02-22T05:19:22;50.30;;;20.03;;
17987;SDS011;9119;50.932;5.342;2023-02-22T05:21:48;50.33;;;19.50;;
17987;SDS011;9119;50.932;5.342;2023-02-22T05:24:14;48.37;;;20.67;;
17987;SDS011;9119;50.932;5.342;2023-02-22T05:26:41;51.70;;;19.43;;
17987;SDS011;9119;50.932;5.342;2023-02-22T05:29:09;49.90;;;20.30;;
17987;SDS011;9119;50.932;5.342;2023-02-22T05:31:35;52.73;;;20.47;;
17987;SDS011;9119;50.932;5.342;2023-02-22T05:34:01;49.07;;;20.07;;
17987;SDS011;9119;50.932;5.342;2023-02-22T05:36:26;48.53;;;19.53;;
17987;SDS011;9119;50.932;5.342;2023-02-22T05:38:52;47.97;;;19.87;;
17987;SDS011;9119;50.932;5.342;2023-02-22T05:41:18;50.70;;;20.03;;
17987;SDS011;9119;50.932;5.342;2023-02-22T05:43:44;63.67;;;20.73;;
17987;SDS011;9119;50.932;5.342;2023-02-22T05:46:10;51.10;;;19.90;;
17987;SDS011;9119;50.932;5.342;2023-02-22T05:48:36;45.83;;;19.17;;
17987;SDS011;9119;50.932;5.342;2023-02-22T05:51:02;43.57;;;18.67;;
17987;SDS011;9119;50.932;5.342;2023-02-22T05:53:28;41.30;;;18.00;;
17987;SDS011;9119;50.932;5.342;2023-02-22T05:55:54;56.87;;;19.50;;
17987;SDS011;9119;50.932;5.342;2023-02-22T05:58:20;41.73;;;17.60;;
17987;SDS011;9119;50.932;5.342;2023-02-22T06:00:46;45.63;;;18.23;;
17987;SDS011;9119;50.932;5.342;2023-02-22T06:03:12;46.87;;;19.43;;
17987;SDS011;9119;50.932;5.342;2023-02-22T06:05:37;44.43;;;19.13;;
17987;SDS011;9119;50.932;5.342;2023-02-22T06:08:04;42.97;;;17.97;;
17987;SDS011;9119;50.932;5.342;2023-02-22T06:10:31;42.97;;;18.13;;
17987;SDS011;9119;50.932;5.342;2023-02-22T06:12:57;41.30;;;17.60;;
17987;SDS011;9119;50.932;5.342;2023-02-22T06:15:24;39.37;;;18.23;;
17987;SDS011;9119;50.932;5.342;2023-02-22T06:17:52;46.40;;;17.60;;
17987;SDS011;9119;50.932;5.342;2023-02-22T06:20:20;42.23;;;17.90;;
17987;SDS011;9119;50.932;5.342;2023-02-22T06:22:47;43.77;;;18.20;;
17987;SDS011;9119;50.932;5.342;2023-02-22T06:25:15;41.27;;;16.83;;
17987;SDS011;9119;50.932;5.342;2023-02-22T06:27:43;38.40;;;17.20;;
17987;SDS011;9119;50.932;5.342;2023-02-22T06:30:09;39.70;;;17.10;;
17987;SDS011;9119;50.932;5.342;2023-02-22T06:32:36;45.90;;;17.60;;
17987;SDS011;9119;50.932;5.342;2023-02-22T06:35:02;40.07;;;17.67;;
17987;SDS011;9119;50.932;5.342;2023-02-22T06:37:28;42.23;;;17.37;;
17987;SDS011;9119;50.932;5.342;2023-02-22T06:39:54;41.77;;;17.37;;
17987;SDS011;9119;50.932;5.342;2023-02-22T06:42:20;52.43;;;17.27;;
17987;SDS011;9119;50.932;5.342;2023-02-22T06:44:45;40.90;;;17.10;;
17987;SDS011;9119;50.932;5.342;2023-02-22T06:47:11;41.60;;;16.43;;
17987;SDS011;9119;50.932;5.342;2023-02-22T06:49:37;44.97;;;17.20;;
17987;SDS011;9119;50.932;5.342;2023-02-22T06:52:03;43.10;;;16.73;;
17987;SDS011;9119;50.932;5.342;2023-02-22T06:54:30;39.63;;;16.27;;
17987;SDS011;9119;50.932;5.342;2023-02-22T06:56:56;38.90;;;16.47;;
17987;SDS011;9119;50.932;5.342;2023-02-22T06:59:22;34.90;;;16.43;;
17987;SDS011;9119;50.932;5.342;2023-02-22T07:01:47;44.40;;;17.83;;
17987;SDS011;9119;50.932;5.342;2023-02-22T07:04:13;41.60;;;16.87;;
17987;SDS011;9119;50.932;5.342;2023-02-22T07:06:44;36.53;;;15.80;;
17987;SDS011;9119;50.932;5.342;2023-02-22T07:09:10;51.87;;;17.67;;
17987;SDS011;9119;50.932;5.342;2023-02-22T07:11:37;34.70;;;15.37;;
17987;SDS011;9119;50.932;5.342;2023-02-22T07:14:03;41.80;;;15.97;;
17987;SDS011;9119;50.932;5.342;2023-02-22T07:16:29;38.60;;;16.40;;
17987;SDS011;9119;50.932;5.342;2023-02-22T07:18:55;35.87;;;15.33;;
17987;SDS011;9119;50.932;5.342;2023-02-22T07:21:21;35.07;;;15.60;;
17987;SDS011;9119;50.932;5.342;2023-02-22T07:23:52;37.20;;;15.40;;
17987;SDS011;9119;50.932;5.342;2023-02-22T07:26:20;33.53;;;14.73;;
17987;SDS011;9119;50.932;5.342;2023-02-22T07:28:46;33.77;;;14.93;;
17987;SDS011;9119;50.932;5.342;2023-02-22T07:31:12;43.80;;;16.27;;
17987;SDS011;9119;50.932;5.342;2023-02-22T07:33:38;35.27;;;15.60;;
17987;SDS011;9119;50.932;5.342;2023-02-22T07:36:04;37.57;;;15.40;;
17987;SDS011;9119;50.932;5.342;2023-02-22T07:38:30;37.77;;;14.67;;
17987;SDS011;9119;50.932;5.342;2023-02-22T07:40:56;43.80;;;15.83;;
17987;SDS011;9119;50.932;5.342;2023-02-22T07:43:23;35.83;;;14.77;;
17987;SDS011;9119;50.932;5.342;2023-02-22T07:45:51;34.63;;;15.17;;
17987;SDS011;9119;50.932;5.342;2023-02-22T07:48:19;30.53;;;14.03;;
17987;SDS011;9119;50.932;5.342;2023-02-22T07:50:46;31.97;;;15.10;;
17987;SDS011;9119;50.932;5.342;2023-02-22T07:53:12;33.17;;;15.43;;
17987;SDS011;9119;50.932;5.342;2023-02-22T07:55:40;35.83;;;15.87;;
17987;SDS011;9119;50.932;5.342;2023-02-22T07:58:06;37.67;;;15.43;;
17987;SDS011;9119;50.932;5.342;2023-02-22T08:00:34;36.27;;;14.97;;
17987;SDS011;9119;50.932;5.342;2023-02-22T08:03:02;36.93;;;16.87;;
17987;SDS011;9119;50.932;5.342;2023-02-22T08:05:29;37.50;;;16.37;;
17987;SDS011;9119;50.932;5.342;2023-02-22T08:07:56;41.27;;;16.70;;
17987;SDS011;9119;50.932;5.342;2023-02-22T08:10:22;37.50;;;16.43;;
17987;SDS011;9119;50.932;5.342;2023-02-22T08:12:49;35.17;;;15.30;;
17987;SDS011;9119;50.932;5.342;2023-02-22T08:15:16;36.50;;;15.97;;
17987;SDS011;9119;50.932;5.342;2023-02-22T08:17:54;42.17;;;16.30;;
17987;SDS011;9119;50.932;5.342;2023-02-22T08:20:20;43.47;;;18.20;;
17987;SDS011;9119;50.932;5.342;2023-02-22T08:22:46;34.53;;;14.80;;
17987;SDS011;9119;50.932;5.342;2023-02-22T08:25:13;33.50;;;14.70;;
17987;SDS011;9119;50.932;5.342;2023-02-22T08:27:40;36.60;;;15.90;;
17987;SDS011;9119;50.932;5.342;2023-02-22T08:30:09;35.40;;;15.47;;
17987;SDS011;9119;50.932;5.342;2023-02-22T08:32:38;39.83;;;15.07;;
17987;SDS011;9119;50.932;5.342;2023-02-22T08:35:04;33.53;;;15.80;;
17987;SDS011;9119;50.932;5.342;2023-02-22T08:37:30;34.73;;;15.33;;
17987;SDS011;9119;50.932;5.342;2023-02-22T08:39:56;34.83;;;16.33;;
17987;SDS011;9119;50.932;5.342;2023-02-22T08:42:21;33.50;;;14.73;;
17987;SDS011;9119;50.932;5.342;2023-02-22T08:44:48;34.90;;;15.40;;
17987;SDS011;9119;50.932;5.342;2023-02-22T08:47:13;30.60;;;14.27;;
17987;SDS011;9119;50.932;5.342;2023-02-22T08:49:39;43.33;;;16.37;;
17987;SDS011;9119;50.932;5.342;2023-02-22T08:52:06;41.93;;;15.93;;
17987;SDS011;9119;50.932;5.342;2023-02-22T08:54:32;30.53;;;14.37;;
17987;SDS011;9119;50.932;5.342;2023-02-22T08:56:58;39.33;;;14.37;;
17987;SDS011;9119;50.932;5.342;2023-02-22T08:59:23;29.77;;;14.63;;
17987;SDS011;9119;50.932;5.342;2023-02-22T09:01:49;42.23;;;13.53;;
17987;SDS011;9119;50.932;5.342;2023-02-22T09:04:15;34.60;;;14.63;;
17987;SDS011;9119;50.932;5.342;2023-02-22T09:06:41;27.73;;;13.40;;
17987;SDS011;9119;50.932;5.342;2023-02-22T09:09:07;27.43;;;12.63;;
17987;SDS011;9119;50.932;5.342;2023-02-22T09:11:33;23.17;;;12.50;;
17987;SDS011;9119;50.932;5.342;2023-02-22T09:13:58;28.30;;;13.17;;
17987;SDS011;9119;50.932;5.342;2023-02-22T09:16:24;30.30;;;13.87;;
17987;SDS011;9119;50.932;5.342;2023-02-22T09:18:49;30.60;;;13.13;;
17987;SDS011;9119;50.932;5.342;2023-02-22T09:21:15;29.80;;;12.47;;
17987;SDS011;9119;50.932;5.342;2023-02-22T09:23:41;22.30;;;11.70;;
17987;SDS011;9119;50.932;5.342;2023-02-22T09:26:07;28.90;;;11.67;;
17987;SDS011;9119;50.932;5.342;2023-02-22T09:28:33;28.00;;;13.00;;
17987;SDS011;9119;50.932;5.342;2023-02-22T09:30:59;28.13;;;12.20;;
17987;SDS011;9119;50.932;5.342;2023-02-22T09:33:25;25.07;;;11.53;;
17987;SDS011;9119;50.932;5.342;2023-02-22T09:35:50;28.23;;;13.13;;
17987;SDS011;9119;50.932;5.342;2023-02-22T09:38:20;24.97;;;12.30;;
17987;SDS011;9119;50.932;5.342;2023-02-22T09:40:49;31.63;;;11.63;;
17987;SDS011;9119;50.932;5.342;2023-02-22T09:43:26;21.77;;;10.97;;
17987;SDS011;9119;50.932;5.342;2023-02-22T09:46:12;22.43;;;10.27;;
17987;SDS011;9119;50.932;5.342;2023-02-22T09:51:30;27.80;;;10.37;;
17987;SDS011;9119;50.932;5.342;2023-02-22T09:54:02;24.67;;;11.20;;
17987;SDS011;9119;50.932;5.342;2023-02-22T09:56:30;19.23;;;9.80;;
17987;SDS011;9119;50.932;5.342;2023-02-22T09:59:01;26.00;;;9.90;;
17987;SDS011;9119;50.932;5.342;2023-02-22T10:07:17;26.80;;;9.03;;
17987;SDS011;9119;50.932;5.342;2023-02-22T10:09:50;22.83;;;9.33;;
17987;SDS011;9119;50.932;5.342;2023-02-22T10:15:05;22.80;;;9.83;;
17987;SDS011;9119;50.932;5.342;2023-02-22T10:23:41;27.63;;;10.73;;
17987;SDS011;9119;50.932;5.342;2023-02-22T10:26:43;27.53;;;9.57;;
17987;SDS011;9119;50.932;5.342;2023-02-22T10:31:30;38.53;;;16.30;;
17987;SDS011;9119;50.932;5.342;2023-02-22T10:34:03;41.53;;;16.60;;
17987;SDS011;9119;50.932;5.342;2023-02-22T10:36:36;27.33;;;11.70;;
17987;SDS011;9119;50.932;5.342;2023-02-22T10:41:51;25.70;;;11.67;;
17987;SDS011;9119;50.932;5.342;2023-02-22T10:44:29;22.30;;;9.77;;
17987;SDS011;9119;50.932;5.342;2023-02-22T10:47:12;21.60;;;9.30;;
17987;SDS011;9119;50.932;5.342;2023-02-22T10:49:40;21.63;;;9.23;;
17987;SDS011;9119;50.932;5.342;2023-02-22T10:52:16;38.47;;;20.73;;
17987;SDS011;9119;50.932;5.342;2023-02-22T10:54:47;65.67;;;32.90;;
17987;SDS011;9119;50.932;5.342;2023-02-22T10:57:19;30.40;;;10.90;;
17987;SDS011;9119;50.932;5.342;2023-02-22T10:59:47;29.77;;;12.87;;
17987;SDS011;9119;50.932;5.342;2023-02-22T11:02:20;35.33;;;12.37;;
17987;SDS011;9119;50.932;5.342;2023-02-22T11:09:50;30.50;;;11.07;;
17987;SDS011;9119;50.932;5.342;2023-02-22T11:12:33;19.27;;;10.33;;
17987;SDS011;9119;50.932;5.342;2023-02-22T11:17:41;19.37;;;10.70;;
17987;SDS011;9119;50.932;5.342;2023-02-22T11:22:50;24.23;;;11.37;;
17987;SDS011;9119;50.932;5.342;2023-02-22T11:25:19;28.60;;;12.63;;
17987;SDS011;9119;50.932;5.342;2023-02-22T11:27:50;21.07;;;11.43;;
17987;SDS011;9119;50.932;5.342;2023-02-22T11:32:53;21.80;;;12.50;;
17987;SDS011;9119;50.932;5.342;2023-02-22T11:38:09;30.43;;;12.17;;
17987;SDS011;9119;50.932;5.342;2023-02-22T11:40:42;28.77;;;12.50;;
17987;SDS011;9119;50.932;5.342;2023-02-22T11:43:18;25.80;;;13.27;;
17987;SDS011;9119;50.932;5.342;2023-02-22T11:45:58;28.50;;;12.93;;
17987;SDS011;9119;50.932;5.342;2023-02-22T11:48:32;22.57;;;13.07;;
17987;SDS011;9119;50.932;5.342;2023-02-22T11:51:16;25.70;;;13.80;;
17987;SDS011;9119;50.932;5.342;2023-02-22T11:53:58;25.00;;;13.10;;
17987;SDS011;9119;50.932;5.342;2023-02-22T11:56:52;32.13;;;14.33;;
17987;SDS011;9119;50.932;5.342;2023-02-22T12:00:01;26.80;;;14.10;;
17987;SDS011;9119;50.932;5.342;2023-02-22T12:13:06;26.00;;;13.83;;
17987;SDS011;9119;50.932;5.342;2023-02-22T12:18:53;27.47;;;11.93;;
17987;SDS011;9119;50.932;5.342;2023-02-22T12:21:39;22.23;;;12.30;;
17987;SDS011;9119;50.932;5.342;2023-02-22T12:26:41;27.53;;;13.80;;
17987;SDS011;9119;50.932;5.342;2023-02-22T12:29:13;27.67;;;12.37;;
17987;SDS011;9119;50.932;5.342;2023-02-22T12:31:42;27.60;;;14.60;;
17987;SDS011;9119;50.932;5.342;2023-02-22T12:36:44;29.73;;;14.27;;
17987;SDS011;9119;50.932;5.342;2023-02-22T12:39:23;26.47;;;13.60;;
17987;SDS011;9119;50.932;5.342;2023-02-22T12:41:54;28.63;;;13.90;;
17987;SDS011;9119;50.932;5.342;2023-02-22T12:44:29;30.27;;;15.43;;
17987;SDS011;9119;50.932;5.342;2023-02-22T12:47:02;30.37;;;13.47;;
17987;SDS011;9119;50.932;5.342;2023-02-22T12:49:41;28.27;;;14.77;;
17987;SDS011;9119;50.932;5.342;2023-02-22T12:52:41;30.47;;;14.70;;
17987;SDS011;9119;50.932;5.342;2023-02-22T12:55:14;25.97;;;14.07;;
17987;SDS011;9119;50.932;5.342;2023-02-22T13:00:20;30.03;;;14.67;;
17987;SDS011;9119;50.932;5.342;2023-02-22T13:05:25;27.73;;;14.70;;
17987;SDS011;9119;50.932;5.342;2023-02-22T13:19:43;28.67;;;13.40;;
17987;SDS011;9119;50.932;5.342;2023-02-22T13:22:22;24.73;;;12.37;;
17987;SDS011;9119;50.932;5.342;2023-02-22T13:27:59;24.13;;;11.83;;
17987;SDS011;9119;50.932;5.342;2023-02-22T13:30:56;25.73;;;13.83;;
17987;SDS011;9119;50.932;5.342;2023-02-22T13:44:12;32.03;;;14.43;;
17987;SDS011;9119;50.932;5.342;2023-02-22T13:47:07;25.73;;;13.87;;
17987;SDS011;9119;50.932;5.342;2023-02-22T13:52:42;26.23;;;13.90;;
17987;SDS011;9119;50.932;5.342;2023-02-22T13:55:14;38.43;;;14.40;;
17987;SDS011;9119;50.932;5.342;2023-02-22T13:57:45;35.50;;;13.73;;
17987;SDS011;9119;50.932;5.342;2023-02-22T14:10:45;25.97;;;13.80;;
17987;SDS011;9119;50.932;5.342;2023-02-22T14:13:24;26.37;;;13.80;;
17987;SDS011;9119;50.932;5.342;2023-02-22T14:18:27;31.30;;;14.23;;
17987;SDS011;9119;50.932;5.342;2023-02-22T14:21:09;27.93;;;14.07;;
17987;SDS011;9119;50.932;5.342;2023-02-22T14:23:46;29.53;;;14.70;;
17987;SDS011;9119;50.932;5.342;2023-02-22T14:26:18;26.50;;;14.53;;
17987;SDS011;9119;50.932;5.342;2023-02-22T14:28:58;28.40;;;13.60;;
17987;SDS011;9119;50.932;5.342;2023-02-22T14:34:04;29.10;;;14.50;;
17987;SDS011;9119;50.932;5.342;2023-02-22T14:39:26;25.33;;;14.07;;
17987;SDS011;9119;50.932;5.342;2023-02-22T14:41:59;29.40;;;14.50;;
17987;SDS011;9119;50.932;5.342;2023-02-22T14:45:14;30.00;;;14.83;;
17987;SDS011;9119;50.932;5.342;2023-02-22T14:50:16;27.57;;;14.00;;
17987;SDS011;9119;50.932;5.342;2023-02-22T14:52:47;27.30;;;14.50;;
17987;SDS011;9119;50.932;5.342;2023-02-22T14:55:33;29.10;;;14.43;;
17987;SDS011;9119;50.932;5.342;2023-02-22T14:58:13;28.27;;;15.00;;
17987;SDS011;9119;50.932;5.342;2023-02-22T15:00:45;28.23;;;15.53;;
17987;SDS011;9119;50.932;5.342;2023-02-22T15:03:32;26.17;;;14.60;;
17987;SDS011;9119;50.932;5.342;2023-02-22T15:06:15;28.57;;;14.07;;
17987;SDS011;9119;50.932;5.342;2023-02-22T15:08:44;26.93;;;13.77;;
17987;SDS011;9119;50.932;5.342;2023-02-22T15:11:27;27.57;;;14.60;;
17987;SDS011;9119;50.932;5.342;2023-02-22T15:13:55;35.90;;;17.93;;
17987;SDS011;9119;50.932;5.342;2023-02-22T15:16:22;31.13;;;15.67;;
17987;SDS011;9119;50.932;5.342;2023-02-22T15:18:52;38.30;;;14.57;;
17987;SDS011;9119;50.932;5.342;2023-02-22T15:21:20;26.93;;;15.63;;
17987;SDS011;9119;50.932;5.342;2023-02-22T15:23:57;32.03;;;15.87;;
17987;SDS011;9119;50.932;5.342;2023-02-22T15:26:38;29.20;;;14.63;;
17987;SDS011;9119;50.932;5.342;2023-02-22T15:29:13;32.20;;;15.00;;
17987;SDS011;9119;50.932;5.342;2023-02-22T15:31:45;29.27;;;15.60;;
17987;SDS011;9119;50.932;5.342;2023-02-22T15:36:43;29.70;;;15.30;;
17987;SDS011;9119;50.932;5.342;2023-02-22T15:39:17;31.87;;;14.73;;
17987;SDS011;9119;50.932;5.342;2023-02-22T15:41:59;35.00;;;17.30;;
17987;SDS011;9119;50.932;5.342;2023-02-22T15:44:34;31.27;;;16.57;;
17987;SDS011;9119;50.932;5.342;2023-02-22T15:47:17;32.23;;;15.53;;
17987;SDS011;9119;50.932;5.342;2023-02-22T15:49:44;30.17;;;16.10;;
17987;SDS011;9119;50.932;5.342;2023-02-22T15:52:20;28.67;;;16.30;;
17987;SDS011;9119;50.932;5.342;2023-02-22T15:54:50;35.00;;;16.60;;
17987;SDS011;9119;50.932;5.342;2023-02-22T15:57:17;35.93;;;16.57;;
17987;SDS011;9119;50.932;5.342;2023-02-22T15:59:54;33.67;;;17.23;;
17987;SDS011;9119;50.932;5.342;2023-02-22T16:05:16;34.73;;;17.60;;
17987;SDS011;9119;50.932;5.342;2023-02-22T16:07:45;35.70;;;17.47;;
17987;SDS011;9119;50.932;5.342;2023-02-22T16:10:19;35.80;;;17.77;;
17987;SDS011;9119;50.932;5.342;2023-02-22T16:12:48;36.33;;;17.63;;
17987;SDS011;9119;50.932;5.342;2023-02-22T16:15:15;37.27;;;18.10;;
17987;SDS011;9119;50.932;5.342;2023-02-22T16:17:43;34.43;;;17.03;;
17987;SDS011;9119;50.932;5.342;2023-02-22T16:22:39;36.70;;;19.20;;
17987;SDS011;9119;50.932;5.342;2023-02-22T16:25:32;40.43;;;19.23;;
17987;SDS011;9119;50.932;5.342;2023-02-22T16:28:00;34.67;;;18.30;;
17987;SDS011;9119;50.932;5.342;2023-02-22T16:30:46;34.93;;;18.83;;
17987;SDS011;9119;50.932;5.342;2023-02-22T16:33:21;35.33;;;19.20;;
17987;SDS011;9119;50.932;5.342;2023-02-22T16:35:46;40.10;;;17.87;;
17987;SDS011;9119;50.932;5.342;2023-02-22T16:38:23;33.40;;;18.83;;
17987;SDS011;9119;50.932;5.342;2023-02-22T16:40:54;36.57;;;18.83;;
17987;SDS011;9119;50.932;5.342;2023-02-22T16:43:23;37.57;;;19.97;;
17987;SDS011;9119;50.932;5.342;2023-02-22T16:45:53;33.23;;;18.33;;
17987;SDS011;9119;50.932;5.342;2023-02-22T16:48:21;34.90;;;19.53;;
17987;SDS011;9119;50.932;5.342;2023-02-22T16:50:52;39.33;;;19.63;;
17987;SDS011;9119;50.932;5.342;2023-02-22T16:53:20;41.67;;;19.80;;
17987;SDS011;9119;50.932;5.342;2023-02-22T16:55:48;38.33;;;20.67;;
17987;SDS011;9119;50.932;5.342;2023-02-22T16:58:17;38.53;;;19.60;;
17987;SDS011;9119;50.932;5.342;2023-02-22T17:00:44;41.20;;;21.97;;
17987;SDS011;9119;50.932;5.342;2023-02-22T17:03:13;45.40;;;21.60;;
17987;SDS011;9119;50.932;5.342;2023-02-22T17:05:41;43.13;;;21.13;;
17987;SDS011;9119;50.932;5.342;2023-02-22T17:08:07;45.10;;;22.07;;
17987;SDS011;9119;50.932;5.342;2023-02-22T17:10:33;46.23;;;22.87;;
17987;SDS011;9119;50.932;5.342;2023-02-22T17:12:59;44.67;;;24.27;;
17987;SDS011;9119;50.932;5.342;2023-02-22T17:15:30;43.90;;;23.13;;
17987;SDS011;9119;50.932;5.342;2023-02-22T17:17:56;42.07;;;23.97;;
17987;SDS011;9119;50.932;5.342;2023-02-22T17:20:23;44.47;;;22.40;;
17987;SDS011;9119;50.932;5.342;2023-02-22T17:23:13;44.40;;;22.63;;
17987;SDS011;9119;50.932;5.342;2023-02-22T17:25:48;48.83;;;23.60;;
17987;SDS011;9119;50.932;5.342;2023-02-22T17:28:17;46.90;;;23.27;;
17987;SDS011;9119;50.932;5.342;2023-02-22T17:30:43;53.77;;;24.47;;
17987;SDS011;9119;50.932;5.342;2023-02-22T17:33:13;47.43;;;24.87;;
17987;SDS011;9119;50.932;5.342;2023-02-22T17:35:41;50.23;;;24.60;;
17987;SDS011;9119;50.932;5.342;2023-02-22T17:38:06;46.67;;;23.67;;